createdAt,value
2023-02-04T00:00:04.266Z,1027.24
2023-02-04T00:01:04.296Z,1027.28
2023-02-04T00:02:04.329Z,1027.28
2023-02-04T00:03:04.460Z,1027.28
2023-02-04T00:04:04.376Z,1027.27
2023-02-04T00:05:04.407Z,1027.27
2023-02-04T00:06:04.479Z,1027.26
2023-02-04T00:07:04.475Z,1027.31
2023-02-04T00:08:04.508Z,1027.27
2023-02-04T00:11:04.570Z,1027.30
2023-02-04T00:12:04.588Z,1027.25
2023-02-04T00:13:04.619Z,1027.28
2023-02-04T00:14:04.640Z,1027.36
2023-02-04T00:15:05.001Z,1027.38
2023-02-04T00:16:04.843Z,1027.39
2023-02-04T00:17:04.721Z,1027.42
2023-02-04T00:18:04.776Z,1027.44
2023-02-04T00:19:04.774Z,1027.48
2023-02-04T00:20:04.803Z,1027.47
2023-02-04T00:21:05.132Z,1027.47
2023-02-04T00:22:04.860Z,1027.52
2023-02-04T00:23:04.914Z,1027.58
2023-02-04T00:24:04.921Z,1027.52
2023-02-04T00:25:04.936Z,1027.54
2023-02-04T00:27:05.296Z,1027.59
2023-02-04T00:28:05.352Z,1027.63
2023-02-04T00:29:05.397Z,1027.60
2023-02-04T00:30:05.372Z,1027.63
2023-02-04T00:31:05.183Z,1027.59
2023-02-04T00:32:05.237Z,1027.64
2023-02-04T00:33:05.172Z,1027.66
2023-02-04T00:34:05.189Z,1027.69
2023-02-04T00:35:05.208Z,1027.73
2023-02-04T00:37:05.372Z,1027.75
2023-02-04T00:38:05.302Z,1027.77
2023-02-04T00:39:05.586Z,1027.74
2023-02-04T00:40:05.344Z,1027.71
2023-02-04T00:41:05.371Z,1027.69
2023-02-04T00:42:05.398Z,1027.64
2023-02-04T00:43:05.439Z,1027.64
2023-02-04T00:44:05.455Z,1027.64
2023-02-04T00:45:05.481Z,1027.59
2023-02-04T00:46:05.974Z,1027.62
2023-02-04T00:47:05.552Z,1027.65
2023-02-04T00:48:05.562Z,1027.69
2023-02-04T00:49:05.592Z,1027.67
2023-02-04T00:50:05.614Z,1027.68
2023-02-04T00:51:05.642Z,1027.71
2023-02-04T00:53:06.006Z,1027.76
2023-02-04T00:54:05.750Z,1027.75
2023-02-04T00:55:05.776Z,1027.76
2023-02-04T00:56:05.787Z,1027.77
2023-02-04T00:57:05.935Z,1027.81
2023-02-04T00:58:05.840Z,1027.83
2023-02-04T00:59:05.876Z,1027.85
2023-02-04T01:00:06.135Z,1027.79
2023-02-04T01:01:05.984Z,1027.77
2023-02-04T01:02:05.943Z,1027.75
2023-02-04T01:03:06.076Z,1027.78
2023-02-04T01:04:05.999Z,1027.84
2023-02-04T01:05:06.034Z,1027.86
2023-02-04T01:06:06.055Z,1027.84
2023-02-04T01:07:06.083Z,1027.86
2023-02-04T01:08:06.120Z,1027.86
2023-02-04T01:09:06.135Z,1027.86
2023-02-04T01:11:06.211Z,1027.92
2023-02-04T01:12:06.251Z,1027.92
2023-02-04T01:13:06.265Z,1027.89
2023-02-04T01:14:06.273Z,1027.85
2023-02-04T01:15:06.328Z,1027.86
2023-02-04T01:16:06.398Z,1027.88
2023-02-04T01:17:06.362Z,1027.89
2023-02-04T01:18:06.397Z,1027.88
2023-02-04T01:19:06.705Z,1027.91
2023-02-04T01:20:06.431Z,1027.95
2023-02-04T01:22:06.488Z,1027.94
2023-02-04T01:23:06.548Z,1027.96
2023-02-04T01:24:06.540Z,1027.93
2023-02-04T01:25:06.847Z,1027.90
2023-02-04T01:26:06.640Z,1027.88
2023-02-04T01:27:06.953Z,1027.92
2023-02-04T01:28:06.683Z,1027.86
2023-02-04T01:29:06.696Z,1027.87
2023-02-04T01:31:07.036Z,1027.91
2023-02-04T01:32:06.829Z,1027.94
2023-02-04T01:33:06.789Z,1027.97
2023-02-04T01:34:06.820Z,1027.97
2023-02-04T01:35:06.845Z,1027.96
2023-02-04T01:36:06.881Z,1027.99
2023-02-04T01:37:06.904Z,1028.00
2023-02-04T01:38:07.219Z,1027.99
2023-02-04T01:39:06.954Z,1028.01
2023-02-04T01:40:06.990Z,1028.00
2023-02-04T01:41:07.007Z,1028.04
2023-02-04T01:42:07.044Z,1028.08
2023-02-04T01:43:07.074Z,1028.08
2023-02-04T01:44:07.100Z,1028.11
2023-02-04T01:45:07.524Z,1028.10
2023-02-04T01:46:07.170Z,1028.09
2023-02-04T01:47:07.164Z,1028.13
2023-02-04T01:48:07.210Z,1028.16
2023-02-04T01:49:07.232Z,1028.16
2023-02-04T01:50:07.275Z,1028.20
2023-02-04T01:51:07.279Z,1028.20
2023-02-04T01:52:07.298Z,1028.22
2023-02-04T01:53:07.402Z,1028.24
2023-02-04T01:54:07.357Z,1028.25
2023-02-04T01:55:07.488Z,1028.31
2023-02-04T01:56:07.408Z,1028.31
2023-02-04T01:57:07.449Z,1028.34
2023-02-04T01:58:07.467Z,1028.31
2023-02-04T02:00:07.537Z,1028.30
2023-02-04T02:01:07.600Z,1028.31
2023-02-04T02:02:07.637Z,1028.34
2023-02-04T02:04:07.924Z,1028.33
2023-02-04T02:05:07.655Z,1028.35
2023-02-04T02:06:07.679Z,1028.35
2023-02-04T02:07:07.707Z,1028.34
2023-02-04T02:08:07.734Z,1028.37
2023-02-04T02:09:07.766Z,1028.34
2023-02-04T02:10:07.785Z,1028.31
2023-02-04T02:11:07.821Z,1028.36
2023-02-04T02:12:07.853Z,1028.39
2023-02-04T02:14:07.903Z,1028.34
2023-02-04T02:15:07.923Z,1028.35
2023-02-04T02:17:07.996Z,1028.35
2023-02-04T02:18:08.108Z,1028.37
2023-02-04T02:19:08.033Z,1028.41
2023-02-04T02:20:08.058Z,1028.42
2023-02-04T02:22:08.424Z,1028.41
2023-02-04T02:23:08.156Z,1028.46
2023-02-04T02:24:08.174Z,1028.47
2023-02-04T02:26:08.224Z,1028.45
2023-02-04T02:27:08.245Z,1028.45
2023-02-04T02:28:08.315Z,1028.48
2023-02-04T02:29:08.306Z,1028.46
2023-02-04T02:30:08.330Z,1028.51
2023-02-04T02:31:08.464Z,1028.56
2023-02-04T02:32:08.388Z,1028.61
2023-02-04T02:33:08.430Z,1028.61
2023-02-04T02:34:08.444Z,1028.65
2023-02-04T02:35:08.770Z,1028.61
2023-02-04T02:36:08.495Z,1028.67
2023-02-04T02:37:08.538Z,1028.66
2023-02-04T02:38:08.552Z,1028.67
2023-02-04T02:39:08.575Z,1028.67
2023-02-04T02:40:08.599Z,1028.63
2023-02-04T02:41:08.627Z,1028.61
2023-02-04T02:42:08.910Z,1028.61
2023-02-04T02:43:08.686Z,1028.60
2023-02-04T02:44:08.720Z,1028.61
2023-02-04T02:45:08.744Z,1028.61
2023-02-04T02:46:08.841Z,1028.61
2023-02-04T02:47:08.791Z,1028.63
2023-02-04T02:49:09.168Z,1028.60
2023-02-04T02:50:08.872Z,1028.60
2023-02-04T02:51:08.908Z,1028.61
2023-02-04T02:52:08.945Z,1028.61
2023-02-04T02:53:08.953Z,1028.62
2023-02-04T02:54:08.976Z,1028.60
2023-02-04T02:55:09.007Z,1028.64
2023-02-04T02:56:09.335Z,1028.62
2023-02-04T02:57:09.057Z,1028.62
2023-02-04T02:58:09.095Z,1028.63
2023-02-04T02:59:09.115Z,1028.63
2023-02-04T03:00:09.139Z,1028.59
2023-02-04T03:02:09.532Z,1028.61
2023-02-04T03:03:09.221Z,1028.60
2023-02-04T03:04:09.250Z,1028.61
2023-02-04T03:05:09.293Z,1028.59
2023-02-04T03:06:09.338Z,1028.62
2023-02-04T03:08:09.655Z,1028.65
2023-02-04T03:09:09.398Z,1028.65
2023-02-04T03:10:09.414Z,1028.71
2023-02-04T03:11:09.434Z,1028.68
2023-02-04T03:12:09.467Z,1028.73
2023-02-04T03:13:09.493Z,1028.70
2023-02-04T03:15:09.544Z,1028.71
2023-02-04T03:16:09.674Z,1028.73
2023-02-04T03:17:09.603Z,1028.71
2023-02-04T03:18:09.628Z,1028.73
2023-02-04T03:19:09.659Z,1028.69
2023-02-04T03:20:10.017Z,1028.71
2023-02-04T03:21:09.733Z,1028.73
2023-02-04T03:22:09.750Z,1028.76
2023-02-04T03:23:09.771Z,1028.76
2023-02-04T03:25:09.820Z,1028.80
2023-02-04T03:26:09.861Z,1028.79
2023-02-04T03:27:10.181Z,1028.81
2023-02-04T03:28:10.058Z,1028.76
2023-02-04T03:30:09.957Z,1028.80
2023-02-04T03:31:10.105Z,1028.81
2023-02-04T03:32:10.012Z,1028.83
2023-02-04T03:33:10.063Z,1028.81
2023-02-04T03:36:10.126Z,1028.85
2023-02-04T03:37:10.172Z,1028.84
2023-02-04T03:39:10.507Z,1028.86
2023-02-04T03:40:10.237Z,1028.89
2023-02-04T03:41:10.260Z,1028.92
2023-02-04T03:42:10.290Z,1028.92
2023-02-04T03:43:10.313Z,1028.96
2023-02-04T03:44:10.352Z,1028.96
2023-02-04T03:45:10.367Z,1028.99
2023-02-04T03:48:10.448Z,1029.00
2023-02-04T03:49:10.523Z,1029.02
2023-02-04T03:50:10.508Z,1029.02
2023-02-04T03:51:10.542Z,1029.01
2023-02-04T03:54:10.630Z,1028.99
2023-02-04T03:55:10.642Z,1028.99
2023-02-04T03:56:10.671Z,1029.01
2023-02-04T03:57:10.691Z,1029.06
2023-02-04T03:58:11.019Z,1029.07
2023-02-04T03:59:10.865Z,1029.14
2023-02-04T04:00:10.777Z,1029.06
2023-02-04T04:01:10.802Z,1029.03
2023-02-04T04:02:10.830Z,1029.06
2023-02-04T04:03:11.019Z,1029.06
2023-02-04T04:04:11.183Z,1029.07
2023-02-04T04:05:10.911Z,1029.11
2023-02-04T04:06:10.947Z,1029.03
2023-02-04T04:07:10.975Z,1029.08
2023-02-04T04:08:10.990Z,1029.12
2023-02-04T04:09:11.026Z,1029.14
2023-02-04T04:10:11.082Z,1029.19
2023-02-04T04:11:11.078Z,1029.22
2023-02-04T04:12:11.099Z,1029.18
2023-02-04T04:13:11.144Z,1029.18
2023-02-04T04:14:11.162Z,1029.16
2023-02-04T04:15:11.260Z,1029.14
2023-02-04T04:16:11.573Z,1029.15
2023-02-04T04:17:11.235Z,1029.14
2023-02-04T04:18:11.590Z,1029.20
2023-02-04T04:19:11.296Z,1029.17
2023-02-04T04:20:11.319Z,1029.17
2023-02-04T04:21:11.341Z,1029.15
2023-02-04T04:22:11.376Z,1029.15
2023-02-04T04:23:11.400Z,1029.13
2023-02-04T04:24:11.432Z,1029.12
2023-02-04T04:25:11.463Z,1029.12
2023-02-04T04:26:11.537Z,1029.11
2023-02-04T04:27:11.510Z,1029.12
2023-02-04T04:28:11.670Z,1029.13
2023-02-04T04:29:11.564Z,1029.15
2023-02-04T04:30:11.589Z,1029.16
2023-02-04T04:31:11.857Z,1029.17
2023-02-04T04:32:11.642Z,1029.21
2023-02-04T04:33:11.665Z,1029.29
2023-02-04T04:35:12.029Z,1029.27
2023-02-04T04:36:11.746Z,1029.27
2023-02-04T04:37:11.773Z,1029.33
2023-02-04T04:38:11.802Z,1029.33
2023-02-04T04:39:11.830Z,1029.36
2023-02-04T04:40:11.858Z,1029.40
2023-02-04T04:41:12.184Z,1029.40
2023-02-04T04:42:11.927Z,1029.38
2023-02-04T04:43:11.950Z,1029.40
2023-02-04T04:44:11.975Z,1029.41
2023-02-04T04:45:11.997Z,1029.41
2023-02-04T04:46:12.024Z,1029.43
2023-02-04T04:47:12.061Z,1029.40
2023-02-04T04:48:12.074Z,1029.47
2023-02-04T04:49:12.094Z,1029.46
2023-02-04T04:50:12.125Z,1029.46
2023-02-04T04:51:12.169Z,1029.46
2023-02-04T04:52:12.189Z,1029.49
2023-02-04T04:54:12.248Z,1029.53
2023-02-04T04:55:12.276Z,1029.53
2023-02-04T04:56:12.282Z,1029.56
2023-02-04T04:57:12.319Z,1029.54
2023-02-04T04:58:12.362Z,1029.53
2023-02-04T04:59:12.724Z,1029.52
2023-02-04T05:00:12.392Z,1029.47
2023-02-04T05:01:12.578Z,1029.50
2023-02-04T05:02:12.468Z,1029.52
2023-02-04T05:03:12.480Z,1029.52
2023-02-04T05:04:12.605Z,1029.54
2023-02-04T05:05:12.535Z,1029.53
2023-02-04T05:06:12.557Z,1029.53
2023-02-04T05:07:12.586Z,1029.60
2023-02-04T05:08:12.620Z,1029.56
2023-02-04T05:09:12.652Z,1029.56
2023-02-04T05:10:12.673Z,1029.59
2023-02-04T05:11:12.999Z,1029.62
2023-02-04T05:12:12.730Z,1029.61
2023-02-04T05:13:12.752Z,1029.59
2023-02-04T05:15:12.829Z,1029.58
2023-02-04T05:16:12.868Z,1029.58
2023-02-04T05:17:12.868Z,1029.61
2023-02-04T05:19:13.022Z,1029.61
2023-02-04T05:20:12.944Z,1029.63
2023-02-04T05:21:12.970Z,1029.60
2023-02-04T05:22:13.000Z,1029.65
2023-02-04T05:23:13.037Z,1029.64
2023-02-04T05:24:13.058Z,1029.68
2023-02-04T05:25:13.090Z,1029.69
2023-02-04T05:26:17.229Z,1029.77
2023-02-04T05:27:13.147Z,1029.77
2023-02-04T05:28:13.207Z,1029.76
2023-02-04T05:30:13.515Z,1029.79
2023-02-04T05:31:15.025Z,1029.82
2023-02-04T05:32:13.273Z,1029.84
2023-02-04T05:33:13.404Z,1029.83
2023-02-04T05:34:13.324Z,1029.86
2023-02-04T05:35:13.349Z,1029.86
2023-02-04T05:36:13.379Z,1029.89
2023-02-04T05:37:13.416Z,1029.87
2023-02-04T05:38:13.455Z,1029.88
2023-02-04T05:39:13.467Z,1029.88
2023-02-04T05:40:13.480Z,1029.89
2023-02-04T05:42:13.545Z,1029.93
2023-02-04T05:43:13.869Z,1029.94
2023-02-04T05:44:13.598Z,1029.92
2023-02-04T05:45:13.620Z,1029.90
2023-02-04T05:46:13.749Z,1029.91
2023-02-04T05:47:13.699Z,1029.84
2023-02-04T05:48:13.711Z,1029.88
2023-02-04T05:49:13.736Z,1029.89
2023-02-04T05:50:14.069Z,1029.89
2023-02-04T05:51:13.860Z,1029.91
2023-02-04T05:52:13.823Z,1029.94
2023-02-04T05:53:13.848Z,1029.96
2023-02-04T05:55:13.901Z,1030.02
2023-02-04T05:56:13.933Z,1030.08
2023-02-04T05:57:13.960Z,1030.11
2023-02-04T05:58:13.979Z,1030.10
2023-02-04T05:59:13.999Z,1030.12
2023-02-04T06:00:14.029Z,1030.17
2023-02-04T06:01:14.058Z,1030.16
2023-02-04T06:02:14.079Z,1030.18
2023-02-04T06:03:14.178Z,1030.20
2023-02-04T06:04:14.145Z,1030.15
2023-02-04T06:05:14.166Z,1030.17
2023-02-04T06:06:14.189Z,1030.20
2023-02-04T06:07:14.216Z,1030.16
2023-02-04T06:08:14.245Z,1030.17
2023-02-04T06:09:14.276Z,1030.20
2023-02-04T06:10:14.301Z,1030.23
2023-02-04T06:11:14.332Z,1030.23
2023-02-04T06:12:14.359Z,1030.23
2023-02-04T06:13:14.387Z,1030.24
2023-02-04T06:14:14.405Z,1030.24
2023-02-04T06:15:14.761Z,1030.22
2023-02-04T06:16:15.011Z,1030.26
2023-02-04T06:17:14.501Z,1030.30
2023-02-04T06:18:14.520Z,1030.29
2023-02-04T06:19:14.580Z,1030.32
2023-02-04T06:20:14.576Z,1030.34
2023-02-04T06:21:15.086Z,1030.29
2023-02-04T06:22:14.674Z,1030.29
2023-02-04T06:23:14.758Z,1030.34
2023-02-04T06:24:14.693Z,1030.35
2023-02-04T06:25:16.260Z,1030.35
2023-02-04T06:26:14.819Z,1030.37
2023-02-04T06:27:14.768Z,1030.42
2023-02-04T06:28:15.125Z,1030.43
2023-02-04T06:29:14.817Z,1030.49
2023-02-04T06:30:14.879Z,1030.45
2023-02-04T06:31:14.958Z,1030.47
2023-02-04T06:32:14.894Z,1030.52
2023-02-04T06:33:14.956Z,1030.52
2023-02-04T06:34:14.968Z,1030.52
2023-02-04T06:35:15.354Z,1030.52
2023-02-04T06:36:15.034Z,1030.51
2023-02-04T06:37:15.038Z,1030.49
2023-02-04T06:38:15.084Z,1030.50
2023-02-04T06:39:15.116Z,1030.45
2023-02-04T06:40:15.117Z,1030.47
2023-02-04T06:41:15.155Z,1030.47
2023-02-04T06:42:15.463Z,1030.45
2023-02-04T06:43:15.214Z,1030.46
2023-02-04T06:44:15.232Z,1030.46
2023-02-04T06:45:15.305Z,1030.46
2023-02-04T06:46:15.343Z,1030.46
2023-02-04T06:47:15.308Z,1030.47
2023-02-04T06:48:15.340Z,1030.45
2023-02-04T06:49:15.378Z,1030.46
2023-02-04T06:50:15.386Z,1030.47
2023-02-04T06:51:15.436Z,1030.46
2023-02-04T06:52:15.438Z,1030.42
2023-02-04T06:53:15.476Z,1030.42
2023-02-04T06:54:15.496Z,1030.44
2023-02-04T06:55:15.843Z,1030.43
2023-02-04T06:56:15.549Z,1030.43
2023-02-04T06:57:15.575Z,1030.43
2023-02-04T06:58:15.621Z,1030.43
2023-02-04T06:59:15.633Z,1030.45
2023-02-04T07:01:15.700Z,1030.48
2023-02-04T07:02:15.729Z,1030.50
2023-02-04T07:03:15.738Z,1030.54
2023-02-04T07:04:15.780Z,1030.60
2023-02-04T07:05:15.791Z,1030.60
2023-02-04T07:06:15.831Z,1030.67
2023-02-04T07:07:15.871Z,1030.65
2023-02-04T07:08:16.174Z,1030.66
2023-02-04T07:09:15.908Z,1030.64
2023-02-04T07:10:15.929Z,1030.64
2023-02-04T07:11:15.968Z,1030.65
2023-02-04T07:12:16.491Z,1030.62
2023-02-04T07:13:16.017Z,1030.62
2023-02-04T07:14:16.046Z,1030.64
2023-02-04T07:15:16.115Z,1030.61
2023-02-04T07:16:16.230Z,1030.65
2023-02-04T07:17:16.124Z,1030.66
2023-02-04T07:18:16.149Z,1030.69
2023-02-04T07:19:16.181Z,1030.65
2023-02-04T07:20:16.526Z,1030.66
2023-02-04T07:21:16.242Z,1030.66
2023-02-04T07:22:16.261Z,1030.63
2023-02-04T07:23:16.315Z,1030.64
2023-02-04T07:24:16.309Z,1030.65
2023-02-04T07:25:16.341Z,1030.68
2023-02-04T07:26:16.667Z,1030.69
2023-02-04T07:27:16.397Z,1030.74
2023-02-04T07:28:16.515Z,1030.72
2023-02-04T07:29:24.805Z,1030.74
2023-02-04T07:30:16.477Z,1030.73
2023-02-04T07:31:16.599Z,1030.79
2023-02-04T07:32:16.533Z,1030.81
2023-02-04T07:33:16.963Z,1030.85
2023-02-04T07:34:16.603Z,1030.85
2023-02-04T07:35:16.614Z,1030.86
2023-02-04T07:36:16.640Z,1030.91
2023-02-04T07:37:16.666Z,1030.96
2023-02-04T07:38:16.722Z,1030.93
2023-02-04T07:40:17.085Z,1030.97
2023-02-04T07:41:16.778Z,1030.99
2023-02-04T07:42:16.793Z,1030.98
2023-02-04T07:43:16.826Z,1031.04
2023-02-04T07:44:16.858Z,1031.01
2023-02-04T07:45:16.916Z,1031.05
2023-02-04T07:46:16.942Z,1031.05
2023-02-04T07:47:17.181Z,1031.03
2023-02-04T07:48:16.964Z,1031.04
2023-02-04T07:49:17.092Z,1031.08
2023-02-04T07:50:17.023Z,1031.08
2023-02-04T07:51:17.040Z,1031.14
2023-02-04T07:52:17.071Z,1031.10
2023-02-04T07:53:17.188Z,1031.08
2023-02-04T07:54:17.119Z,1031.08
2023-02-04T07:55:17.147Z,1031.09
2023-02-04T07:57:18.744Z,1031.13
2023-02-04T07:58:17.229Z,1031.08
2023-02-04T07:59:17.254Z,1031.12
2023-02-04T08:00:17.279Z,1031.14
2023-02-04T08:01:17.465Z,1031.15
2023-02-04T08:02:17.355Z,1031.18
2023-02-04T08:03:17.366Z,1031.16
2023-02-04T08:04:17.392Z,1031.19
2023-02-04T08:05:17.419Z,1031.18
2023-02-04T08:06:17.848Z,1031.21
2023-02-04T08:07:17.510Z,1031.24
2023-02-04T08:08:17.499Z,1031.21
2023-02-04T08:09:17.530Z,1031.19
2023-02-04T08:10:17.552Z,1031.21
2023-02-04T08:11:17.587Z,1031.17
2023-02-04T08:12:17.904Z,1031.20
2023-02-04T08:13:17.661Z,1031.22
2023-02-04T08:14:17.683Z,1031.23
2023-02-04T08:15:17.694Z,1031.24
2023-02-04T08:16:17.797Z,1031.23
2023-02-04T08:17:17.843Z,1031.25
2023-02-04T08:18:18.073Z,1031.31
2023-02-04T08:19:17.801Z,1031.34
2023-02-04T08:20:17.824Z,1031.33
2023-02-04T08:21:19.404Z,1031.35
2023-02-04T08:22:17.876Z,1031.32
2023-02-04T08:23:17.907Z,1031.35
2023-02-04T08:24:18.193Z,1031.35
2023-02-04T08:26:17.989Z,1031.37
2023-02-04T08:27:18.012Z,1031.40
2023-02-04T08:28:18.125Z,1031.46
2023-02-04T08:29:18.089Z,1031.45
2023-02-04T08:30:18.104Z,1031.51
2023-02-04T08:31:18.540Z,1031.52
2023-02-04T08:32:18.256Z,1031.52
2023-02-04T08:33:18.183Z,1031.58
2023-02-04T08:34:18.210Z,1031.55
2023-02-04T08:35:18.234Z,1031.58
2023-02-04T08:36:18.266Z,1031.61
2023-02-04T08:37:18.294Z,1031.67
2023-02-04T08:38:18.310Z,1031.69
2023-02-04T08:39:18.602Z,1031.68
2023-02-04T08:40:20.191Z,1031.66
2023-02-04T08:41:18.399Z,1031.66
2023-02-04T08:42:18.421Z,1031.66
2023-02-04T08:43:18.449Z,1031.64
2023-02-04T08:44:18.483Z,1031.70
2023-02-04T08:45:18.539Z,1031.70
2023-02-04T08:46:18.632Z,1031.65
2023-02-04T08:47:18.585Z,1031.67
2023-02-04T08:48:18.603Z,1031.71
2023-02-04T08:49:18.626Z,1031.68
2023-02-04T08:50:19.059Z,1031.69
2023-02-04T08:51:18.687Z,1031.67
2023-02-04T08:53:18.748Z,1031.71
2023-02-04T08:54:18.777Z,1031.69
2023-02-04T08:55:18.829Z,1031.72
2023-02-04T08:56:18.845Z,1031.71
2023-02-04T08:57:19.274Z,1031.69
2023-02-04T08:58:18.887Z,1031.70
2023-02-04T08:59:18.916Z,1031.73
2023-02-04T09:00:19.044Z,1031.74
2023-02-04T09:01:19.093Z,1031.76
2023-02-04T09:02:19.049Z,1031.76
2023-02-04T09:03:19.335Z,1031.79
2023-02-04T09:04:19.055Z,1031.84
2023-02-04T09:05:19.088Z,1031.84
2023-02-04T09:06:19.113Z,1031.91
2023-02-04T09:07:19.149Z,1031.93
2023-02-04T09:08:19.180Z,1031.92
2023-02-04T09:09:22.251Z,1031.95
2023-02-04T09:10:19.230Z,1031.93
2023-02-04T09:11:19.263Z,1031.95
2023-02-04T09:12:19.290Z,1032.01
2023-02-04T09:13:19.313Z,1031.97
2023-02-04T09:14:19.339Z,1032.01
2023-02-04T09:15:19.362Z,1031.96
2023-02-04T09:16:19.508Z,1031.96
2023-02-04T09:17:19.452Z,1031.97
2023-02-04T09:18:19.457Z,1031.99
2023-02-04T09:19:19.484Z,1031.95
2023-02-04T09:22:19.564Z,1031.98
2023-02-04T09:23:19.598Z,1031.97
2023-02-04T09:24:19.624Z,1031.96
2023-02-04T09:25:19.664Z,1031.95
2023-02-04T09:26:19.670Z,1031.94
2023-02-04T09:27:19.813Z,1031.95
2023-02-04T09:28:19.874Z,1031.98
2023-02-04T09:29:19.758Z,1031.97
2023-02-04T09:30:19.799Z,1032.04
2023-02-04T09:31:19.919Z,1032.00
2023-02-04T09:32:19.844Z,1032.03
2023-02-04T09:33:19.899Z,1032.02
2023-02-04T09:34:19.913Z,1032.07
2023-02-04T09:35:19.928Z,1032.04
2023-02-04T09:36:19.952Z,1032.03
2023-02-04T09:37:19.986Z,1032.05
2023-02-04T09:38:20.017Z,1032.03
2023-02-04T09:39:20.035Z,1032.03
2023-02-04T09:40:20.073Z,1032.03
2023-02-04T09:41:20.094Z,1032.12
2023-02-04T09:42:20.230Z,1032.13
2023-02-04T09:43:20.149Z,1032.13
2023-02-04T09:44:20.193Z,1032.22
2023-02-04T09:46:20.536Z,1032.18
2023-02-04T09:48:20.292Z,1032.16
2023-02-04T09:49:20.334Z,1032.16
2023-02-04T09:50:20.355Z,1032.14
2023-02-04T09:52:20.740Z,1032.15
2023-02-04T09:53:20.428Z,1032.17
2023-02-04T09:54:20.450Z,1032.17
2023-02-04T09:55:20.477Z,1032.19
2023-02-04T09:57:20.530Z,1032.19
2023-02-04T09:58:20.569Z,1032.17
2023-02-04T10:01:20.757Z,1032.21
2023-02-04T10:03:20.721Z,1032.24
2023-02-04T10:04:20.726Z,1032.29
2023-02-04T10:05:22.656Z,1032.32
2023-02-04T10:06:21.087Z,1032.39
2023-02-04T10:07:20.814Z,1032.33
2023-02-04T10:08:20.845Z,1032.36
2023-02-04T10:09:20.847Z,1032.35
2023-02-04T10:10:20.883Z,1032.40
2023-02-04T10:11:20.906Z,1032.42
2023-02-04T10:13:20.972Z,1032.46
2023-02-04T10:14:21.001Z,1032.44
2023-02-04T10:15:21.018Z,1032.43
2023-02-04T10:16:21.084Z,1032.40
2023-02-04T10:17:21.077Z,1032.43
2023-02-04T10:18:21.098Z,1032.40
2023-02-04T10:19:21.381Z,1032.43
2023-02-04T10:20:21.159Z,1032.45
2023-02-04T10:21:21.242Z,1032.44
2023-02-04T10:22:21.202Z,1032.46
2023-02-04T10:23:21.282Z,1032.46
2023-02-04T10:24:21.265Z,1032.45
2023-02-04T10:25:21.291Z,1032.47
2023-02-04T10:26:21.330Z,1032.47
2023-02-04T10:27:21.341Z,1032.46
2023-02-04T10:28:21.370Z,1032.45
2023-02-04T10:30:21.481Z,1032.45
2023-02-04T10:31:21.586Z,1032.43
2023-02-04T10:32:21.803Z,1032.44
2023-02-04T10:33:21.519Z,1032.40
2023-02-04T10:34:21.545Z,1032.43
2023-02-04T10:35:21.576Z,1032.45
2023-02-04T10:36:21.718Z,1032.46
2023-02-04T10:37:21.652Z,1032.42
2023-02-04T10:38:21.662Z,1032.40
2023-02-04T10:39:21.688Z,1032.42
2023-02-04T10:40:21.710Z,1032.41
2023-02-04T10:41:21.739Z,1032.40
2023-02-04T10:42:21.770Z,1032.39
2023-02-04T10:43:21.814Z,1032.41
2023-02-04T10:44:21.822Z,1032.42
2023-02-04T10:45:21.864Z,1032.37
2023-02-04T10:46:21.921Z,1032.37
2023-02-04T10:47:21.907Z,1032.39
2023-02-04T10:48:21.943Z,1032.40
2023-02-04T10:49:21.967Z,1032.41
2023-02-04T10:50:21.999Z,1032.42
2023-02-04T10:52:22.359Z,1032.40
2023-02-04T10:53:22.100Z,1032.39
2023-02-04T10:54:22.102Z,1032.43
2023-02-04T10:55:22.152Z,1032.44
2023-02-04T10:56:22.180Z,1032.43
2023-02-04T10:57:22.190Z,1032.44
2023-02-04T10:58:22.216Z,1032.42
2023-02-04T10:59:22.246Z,1032.45
2023-02-04T11:00:22.289Z,1032.44
2023-02-04T11:01:22.353Z,1032.44
2023-02-04T11:02:22.323Z,1032.42
2023-02-04T11:03:22.394Z,1032.45
2023-02-04T11:04:22.685Z,1032.43
2023-02-04T11:05:22.414Z,1032.45
2023-02-04T11:06:22.452Z,1032.45
2023-02-04T11:07:22.481Z,1032.41
2023-02-04T11:08:22.503Z,1032.43
2023-02-04T11:09:22.554Z,1032.37
2023-02-04T11:10:22.573Z,1032.38
2023-02-04T11:11:22.584Z,1032.39
2023-02-04T11:12:22.606Z,1032.40
2023-02-04T11:13:22.647Z,1032.39
2023-02-04T11:15:22.690Z,1032.39
2023-02-04T11:16:22.745Z,1032.40
2023-02-04T11:17:23.006Z,1032.40
2023-02-04T11:18:22.798Z,1032.36
2023-02-04T11:19:22.822Z,1032.37
2023-02-04T11:20:22.835Z,1032.39
2023-02-04T11:21:22.863Z,1032.40
2023-02-04T11:22:22.888Z,1032.35
2023-02-04T11:23:22.920Z,1032.30
2023-02-04T11:24:22.949Z,1032.33
2023-02-04T11:25:22.993Z,1032.35
2023-02-04T11:26:23.001Z,1032.35
2023-02-04T11:27:23.029Z,1032.39
2023-02-04T11:28:23.061Z,1032.31
2023-02-04T11:29:23.082Z,1032.36
2023-02-04T11:30:23.143Z,1032.34
2023-02-04T11:31:23.280Z,1032.34
2023-02-04T11:32:23.173Z,1032.34
2023-02-04T11:33:23.195Z,1032.33
2023-02-04T11:34:23.226Z,1032.31
2023-02-04T11:35:23.271Z,1032.34
2023-02-04T11:36:23.583Z,1032.34
2023-02-04T11:37:23.337Z,1032.33
2023-02-04T11:38:23.333Z,1032.31
2023-02-04T11:39:23.377Z,1032.33
2023-02-04T11:40:23.394Z,1032.40
2023-02-04T11:41:23.468Z,1032.33
2023-02-04T11:42:23.458Z,1032.37
2023-02-04T11:43:23.476Z,1032.40
2023-02-04T11:44:23.505Z,1032.40
2023-02-04T11:45:23.534Z,1032.40
2023-02-04T11:46:23.617Z,1032.43
2023-02-04T11:47:23.592Z,1032.46
2023-02-04T11:49:23.944Z,1032.43
2023-02-04T11:50:23.675Z,1032.42
2023-02-04T11:52:23.746Z,1032.44
2023-02-04T11:53:23.755Z,1032.43
2023-02-04T11:55:24.066Z,1032.47
2023-02-04T11:56:23.835Z,1032.47
2023-02-04T11:57:23.940Z,1032.43
2023-02-04T11:58:23.900Z,1032.43
2023-02-04T11:59:23.926Z,1032.45
2023-02-04T12:00:23.960Z,1032.43
2023-02-04T12:01:23.999Z,1032.39
2023-02-04T12:02:24.055Z,1032.41
2023-02-04T12:03:24.181Z,1032.40
2023-02-04T12:04:24.088Z,1032.45
2023-02-04T12:05:24.107Z,1032.45
2023-02-04T12:06:24.124Z,1032.44
2023-02-04T12:07:24.451Z,1032.50
2023-02-04T12:08:24.196Z,1032.46
2023-02-04T12:09:24.207Z,1032.45
2023-02-04T12:10:24.235Z,1032.50
2023-02-04T12:11:24.402Z,1032.47
2023-02-04T12:13:24.645Z,1032.45
2023-02-04T12:14:24.352Z,1032.45
2023-02-04T12:15:24.381Z,1032.45
2023-02-04T12:16:24.482Z,1032.44
2023-02-04T12:17:24.431Z,1032.48
2023-02-04T12:18:24.472Z,1032.50
2023-02-04T12:19:26.707Z,1032.49
2023-02-04T12:21:24.550Z,1032.49
2023-02-04T12:22:24.580Z,1032.53
2023-02-04T12:23:24.616Z,1032.55
2023-02-04T12:24:24.642Z,1032.51
2023-02-04T12:25:24.667Z,1032.49
2023-02-04T12:26:24.994Z,1032.48
2023-02-04T12:27:24.718Z,1032.51
2023-02-04T12:28:24.759Z,1032.48
2023-02-04T12:29:24.792Z,1032.49
2023-02-04T12:30:24.838Z,1032.47
2023-02-04T12:31:24.963Z,1032.44
2023-02-04T12:33:25.200Z,1032.45
2023-02-04T12:34:24.921Z,1032.48
2023-02-04T12:35:24.944Z,1032.52
2023-02-04T12:36:24.967Z,1032.51
2023-02-04T12:37:24.998Z,1032.49
2023-02-04T12:38:25.026Z,1032.50
2023-02-04T12:39:25.087Z,1032.46
2023-02-04T12:40:25.113Z,1032.49
2023-02-04T12:41:25.113Z,1032.48
2023-02-04T12:42:25.153Z,1032.49
2023-02-04T12:43:26.591Z,1032.47
2023-02-04T12:45:25.494Z,1032.50
2023-02-04T12:46:25.320Z,1032.48
2023-02-04T12:47:25.277Z,1032.52
2023-02-04T12:48:25.368Z,1032.52
2023-02-04T12:49:25.337Z,1032.49
2023-02-04T12:50:25.367Z,1032.50
2023-02-04T12:51:25.401Z,1032.49
2023-02-04T12:52:25.425Z,1032.51
2023-02-04T12:53:26.047Z,1032.49
2023-02-04T12:54:25.490Z,1032.50
2023-02-04T12:55:25.520Z,1032.44
2023-02-04T12:56:25.535Z,1032.47
2023-02-04T12:57:25.572Z,1032.49
2023-02-04T12:58:25.597Z,1032.49
2023-02-04T12:59:25.627Z,1032.52
2023-02-04T13:00:25.666Z,1032.52
2023-02-04T13:01:25.694Z,1032.50
2023-02-04T13:02:25.703Z,1032.53
2023-02-04T13:03:25.732Z,1032.53
2023-02-04T13:04:26.084Z,1032.51